createdAt,value
2017-01-27T00:01:12.439Z,0
2017-01-27T00:02:26.294Z,0
2017-01-27T00:03:40.470Z,0
2017-01-27T00:04:54.207Z,0
2017-01-27T00:06:08.505Z,0
2017-01-27T00:07:21.947Z,0
2017-01-27T00:08:35.874Z,0
2017-01-27T00:09:49.723Z,0
2017-01-27T00:11:03.457Z,0
2017-01-27T00:12:16.952Z,0
2017-01-27T00:13:30.425Z,0
2017-01-27T00:14:44.311Z,0
2017-01-27T00:15:57.802Z,0
2017-01-27T00:17:12.026Z,0
2017-01-27T00:18:25.477Z,0
2017-01-27T00:19:39.375Z,0
2017-01-27T00:20:52.820Z,0
2017-01-27T00:22:06.759Z,0
2017-01-27T00:23:20.898Z,0
2017-01-27T00:24:34.990Z,0
2017-01-27T00:25:48.941Z,0
2017-01-27T00:27:02.469Z,0
2017-01-27T00:28:15.995Z,0
2017-01-27T00:29:29.842Z,0
2017-01-27T00:30:43.291Z,0
2017-01-27T00:31:57.127Z,0
2017-01-27T00:33:10.613Z,0
2017-01-27T00:34:24.709Z,0
2017-01-27T00:35:41.260Z,0
2017-01-27T00:36:54.855Z,0
2017-01-27T00:38:08.693Z,0
2017-01-27T00:39:22.160Z,0
2017-01-27T00:40:36.151Z,0
2017-01-27T00:41:49.891Z,0
2017-01-27T00:43:03.379Z,0
2017-01-27T00:44:16.857Z,0
2017-01-27T00:45:30.416Z,0
2017-01-27T00:46:44.297Z,0
2017-01-27T00:47:58.003Z,0
2017-01-27T00:49:13.688Z,0
2017-01-27T00:50:27.598Z,0
2017-01-27T00:51:41.471Z,0
2017-01-27T00:52:55.352Z,0
2017-01-27T00:54:09.099Z,0
2017-01-27T00:55:22.590Z,0
2017-01-27T00:56:36.099Z,0
2017-01-27T00:57:49.573Z,0
2017-01-27T00:59:03.540Z,0
2017-01-27T01:00:17.306Z,0
2017-01-27T01:01:31.219Z,0
2017-01-27T01:02:45.111Z,0
2017-01-27T01:03:59.067Z,0
2017-01-27T01:05:12.970Z,0
2017-01-27T01:06:26.736Z,0
2017-01-27T01:07:40.204Z,0
2017-01-27T01:08:54.490Z,0
2017-01-27T01:10:08.568Z,0
2017-01-27T01:11:22.043Z,0
2017-01-27T01:12:36.288Z,0
2017-01-27T01:13:49.779Z,0
2017-01-27T01:15:03.259Z,0
2017-01-27T01:16:16.865Z,0
2017-01-27T01:17:45.235Z,0
2017-01-27T01:18:59.441Z,0
2017-01-27T01:20:13.288Z,0
2017-01-27T01:21:27.594Z,0
2017-01-27T01:22:41.120Z,0
2017-01-27T01:23:54.634Z,0
2017-01-27T01:25:08.445Z,0
2017-01-27T01:26:21.878Z,0
2017-01-27T01:27:35.464Z,0
2017-01-27T01:28:49.272Z,0
2017-01-27T01:30:02.798Z,0
2017-01-27T01:31:16.646Z,0
2017-01-27T01:32:30.172Z,0
2017-01-27T01:33:43.751Z,0
2017-01-27T01:34:57.370Z,0
2017-01-27T01:36:10.909Z,0
2017-01-27T01:37:24.696Z,0
2017-01-27T01:38:38.332Z,0
2017-01-27T01:39:52.418Z,0
2017-01-27T01:41:06.365Z,0
2017-01-27T01:42:19.887Z,0
2017-01-27T01:43:33.771Z,0
2017-01-27T01:44:48.984Z,0
2017-01-27T01:46:02.675Z,0
2017-01-27T01:47:16.577Z,0
2017-01-27T01:48:30.096Z,0
2017-01-27T01:49:43.984Z,0
2017-01-27T01:50:57.539Z,0
2017-01-27T01:52:11.082Z,0
2017-01-27T01:53:24.792Z,0
2017-01-27T01:54:38.352Z,0
2017-01-27T01:55:52.319Z,0
2017-01-27T01:57:06.317Z,0
2017-01-27T01:58:19.905Z,0
2017-01-27T01:59:33.492Z,0
2017-01-27T02:00:47.327Z,0
2017-01-27T02:02:01.626Z,0
2017-01-27T02:03:15.237Z,0
2017-01-27T02:04:29.220Z,0
2017-01-27T02:05:44.891Z,0
2017-01-27T02:06:58.586Z,0
2017-01-27T02:08:12.803Z,0
2017-01-27T02:09:26.890Z,0
2017-01-27T02:10:41.087Z,0
2017-01-27T02:11:54.678Z,0
2017-01-27T02:13:08.705Z,0
2017-01-27T02:14:22.760Z,0
2017-01-27T02:15:36.816Z,0
2017-01-27T02:16:50.771Z,0
2017-01-27T02:18:05.081Z,0
2017-01-27T02:19:18.700Z,0
2017-01-27T02:20:32.392Z,0
2017-01-27T02:21:47.086Z,0
2017-01-27T02:23:01.109Z,0
2017-01-27T02:24:14.998Z,0
2017-01-27T02:25:28.479Z,0
2017-01-27T02:26:42.230Z,0
2017-01-27T02:27:56.147Z,0
2017-01-27T02:29:10.682Z,0
2017-01-27T02:30:24.289Z,0
2017-01-27T02:31:37.775Z,0
2017-01-27T02:32:51.699Z,0
2017-01-27T02:34:05.544Z,0
2017-01-27T02:35:18.987Z,0
2017-01-27T02:36:32.929Z,0
2017-01-27T02:37:46.484Z,0
2017-01-27T02:39:00.312Z,0
2017-01-27T02:40:14.136Z,0
2017-01-27T02:41:27.994Z,0
2017-01-27T02:42:43.926Z,0
2017-01-27T02:43:57.858Z,0
2017-01-27T02:45:11.852Z,0
2017-01-27T02:46:25.729Z,0
2017-01-27T02:47:39.257Z,0
2017-01-27T02:48:52.696Z,0
2017-01-27T02:50:06.255Z,0
2017-01-27T02:51:19.970Z,0
2017-01-27T02:52:33.410Z,0
2017-01-27T02:53:47.082Z,0
2017-01-27T02:55:00.524Z,0
2017-01-27T02:56:14.071Z,0
2017-01-27T02:57:27.819Z,0
2017-01-27T02:58:42.740Z,0
2017-01-27T02:59:56.243Z,0
2017-01-27T03:01:09.743Z,0
2017-01-27T03:02:23.369Z,0
2017-01-27T03:03:37.122Z,0
2017-01-27T03:04:50.615Z,0
2017-01-27T03:06:04.063Z,0
2017-01-27T03:07:17.649Z,0
2017-01-27T03:08:31.581Z,0
2017-01-27T03:09:45.412Z,0
2017-01-27T03:10:59.287Z,0
2017-01-27T03:12:13.132Z,0
2017-01-27T03:13:26.958Z,0
2017-01-27T03:14:40.447Z,0
2017-01-27T03:15:54.667Z,0
2017-01-27T03:17:08.361Z,0
2017-01-27T03:18:21.798Z,0
2017-01-27T03:19:35.284Z,0
2017-01-27T03:20:48.841Z,0
2017-01-27T03:22:04.779Z,0
2017-01-27T03:23:18.725Z,0
2017-01-27T03:24:32.193Z,0
2017-01-27T03:25:45.766Z,0
2017-01-27T03:26:59.235Z,0
2017-01-27T03:28:13.020Z,0
2017-01-27T03:29:26.429Z,0
2017-01-27T03:30:39.953Z,0
2017-01-27T03:31:53.329Z,0
2017-01-27T03:33:06.756Z,0
2017-01-27T03:34:20.461Z,0
2017-01-27T03:35:33.903Z,0
2017-01-27T03:36:47.463Z,0
2017-01-27T03:38:01.067Z,0
2017-01-27T03:39:14.531Z,0
2017-01-27T03:40:28.261Z,0
2017-01-27T03:41:42.163Z,0
2017-01-27T03:42:55.639Z,0
2017-01-27T03:44:09.200Z,0
2017-01-27T03:45:23.099Z,0
2017-01-27T03:46:37.072Z,0
2017-01-27T03:47:50.651Z,0
2017-01-27T03:49:04.190Z,0
2017-01-27T03:50:17.597Z,0
2017-01-27T03:51:31.343Z,0
2017-01-27T03:52:45.169Z,0
2017-01-27T03:53:59.289Z,0
2017-01-27T03:55:13.445Z,0
2017-01-27T03:56:27.331Z,0
2017-01-27T03:57:47.398Z,0
2017-01-27T03:59:01.966Z,0
2017-01-27T04:00:15.496Z,0
2017-01-27T04:01:28.932Z,0
2017-01-27T04:02:42.481Z,0
2017-01-27T04:03:56.770Z,0
2017-01-27T04:05:10.580Z,0
2017-01-27T04:06:24.497Z,0
2017-01-27T04:07:38.025Z,0
2017-01-27T04:08:51.624Z,0
2017-01-27T04:10:06.317Z,0
2017-01-27T04:11:20.267Z,0
2017-01-27T04:12:33.739Z,0
2017-01-27T04:13:47.186Z,0
2017-01-27T04:15:00.850Z,0
2017-01-27T04:16:14.300Z,0
2017-01-27T04:17:28.016Z,0
2017-01-27T04:18:41.750Z,0
2017-01-27T04:19:55.607Z,0
2017-01-27T04:21:09.908Z,0
2017-01-27T04:22:23.451Z,0
2017-01-27T04:23:37.228Z,0
2017-01-27T04:24:51.510Z,0
2017-01-27T04:26:05.078Z,0
2017-01-27T04:27:18.566Z,0
2017-01-27T04:28:32.020Z,0
2017-01-27T04:29:46.194Z,0
2017-01-27T04:31:00.231Z,0
2017-01-27T04:32:13.824Z,0
2017-01-27T04:33:28.054Z,0
2017-01-27T04:34:42.320Z,0
2017-01-27T04:35:56.020Z,0
2017-01-27T04:37:09.516Z,0
2017-01-27T04:38:25.167Z,0
2017-01-27T04:39:38.756Z,0
2017-01-27T04:40:52.217Z,0
2017-01-27T04:42:05.998Z,0
2017-01-27T04:43:19.554Z,0
2017-01-27T04:44:33.228Z,0
2017-01-27T04:45:46.757Z,0
2017-01-27T04:47:00.235Z,0
2017-01-27T04:48:14.130Z,0
2017-01-27T04:49:27.625Z,0
2017-01-27T04:50:41.258Z,0
2017-01-27T04:51:54.721Z,0
2017-01-27T04:53:08.203Z,0
2017-01-27T04:54:22.342Z,0
2017-01-27T04:55:35.949Z,0
2017-01-27T04:56:49.397Z,0
2017-01-27T04:58:02.921Z,0
2017-01-27T04:59:16.369Z,0
2017-01-27T05:00:30.238Z,0
2017-01-27T05:01:43.868Z,0
2017-01-27T05:02:57.302Z,0
2017-01-27T05:04:11.169Z,0
2017-01-27T05:05:24.704Z,0
2017-01-27T05:06:38.910Z,0
2017-01-27T05:07:53.034Z,0
2017-01-27T05:09:06.696Z,0
2017-01-27T05:10:20.520Z,0
2017-01-27T05:11:34.046Z,0
2017-01-27T05:12:47.900Z,0
2017-01-27T05:14:01.375Z,0
2017-01-27T05:15:14.873Z,0
2017-01-27T05:16:28.341Z,0
2017-01-27T05:17:41.803Z,0
2017-01-27T05:18:55.562Z,0
2017-01-27T05:20:09.398Z,0
2017-01-27T05:21:23.789Z,0
2017-01-27T05:22:38.619Z,0
2017-01-27T05:23:52.101Z,0
2017-01-27T05:25:05.870Z,0
2017-01-27T05:26:19.378Z,0
2017-01-27T05:27:33.876Z,0
2017-01-27T05:28:47.896Z,0
2017-01-27T05:30:01.369Z,0
2017-01-27T05:31:15.519Z,0
2017-01-27T05:32:29.841Z,0
2017-01-27T05:33:43.440Z,0
2017-01-27T05:34:56.885Z,0
2017-01-27T05:36:10.448Z,0
2017-01-27T05:37:24.206Z,0
2017-01-27T05:38:37.824Z,0
2017-01-27T05:39:52.198Z,0
2017-01-27T05:41:06.693Z,0
2017-01-27T05:42:20.747Z,0
2017-01-27T05:43:35.968Z,0
2017-01-27T05:44:49.507Z,0
2017-01-27T05:46:02.991Z,0
2017-01-27T05:47:16.518Z,0
2017-01-27T05:48:30.015Z,0
2017-01-27T05:49:44.076Z,0
2017-01-27T05:50:57.583Z,0
2017-01-27T05:52:11.949Z,0
2017-01-27T05:53:25.556Z,0
2017-01-27T05:54:41.721Z,0
2017-01-27T05:55:55.601Z,0
2017-01-27T05:57:09.259Z,0
2017-01-27T05:58:23.163Z,0
2017-01-27T05:59:37.194Z,0
2017-01-27T06:00:50.993Z,0
2017-01-27T06:02:04.804Z,0
2017-01-27T06:03:18.453Z,0
2017-01-27T06:04:33.373Z,0
2017-01-27T06:05:46.825Z,0
2017-01-27T06:07:00.898Z,0
2017-01-27T06:08:14.692Z,0
2017-01-27T06:09:28.217Z,0
2017-01-27T06:10:42.489Z,0
2017-01-27T06:11:58.034Z,0
2017-01-27T06:13:11.938Z,0
2017-01-27T06:14:25.862Z,0
2017-01-27T06:15:39.454Z,0
2017-01-27T06:16:52.909Z,0
2017-01-27T06:18:06.768Z,0
2017-01-27T06:19:20.297Z,0
2017-01-27T06:20:34.140Z,0
2017-01-27T06:21:47.582Z,0
2017-01-27T06:23:01.159Z,0
2017-01-27T06:24:14.615Z,0
2017-01-27T06:25:28.187Z,0
2017-01-27T06:26:42.345Z,0
2017-01-27T06:27:56.264Z,0
2017-01-27T06:29:09.806Z,0
2017-01-27T06:30:23.287Z,0
2017-01-27T06:31:37.662Z,0
2017-01-27T06:32:51.394Z,4
2017-01-27T06:34:05.249Z,0
2017-01-27T06:35:19.122Z,0
2017-01-27T06:36:33.403Z,4
2017-01-27T06:37:47.456Z,0
2017-01-27T06:39:01.214Z,4
2017-01-27T06:40:14.704Z,4
2017-01-27T06:41:28.574Z,4
2017-01-27T06:42:42.026Z,4
2017-01-27T06:43:55.581Z,8
2017-01-27T06:45:09.687Z,8
2017-01-27T06:46:23.112Z,12
2017-01-27T06:47:36.606Z,12
2017-01-27T06:48:50.073Z,20
2017-01-27T06:50:03.560Z,20
2017-01-27T06:51:17.331Z,24
2017-01-27T06:52:31.002Z,28
2017-01-27T06:53:44.435Z,32
2017-01-27T06:54:57.855Z,40
2017-01-27T06:56:11.710Z,48
2017-01-27T06:57:25.494Z,56
2017-01-27T06:58:39.016Z,64
2017-01-27T06:59:52.512Z,76
2017-01-27T07:01:18.649Z,88
2017-01-27T07:02:32.149Z,100
2017-01-27T07:04:04.786Z,112
2017-01-27T07:05:18.242Z,128
2017-01-27T07:06:31.653Z,144
2017-01-27T07:07:45.127Z,160
2017-01-27T07:08:58.818Z,176
2017-01-27T07:10:12.257Z,200
2017-01-27T07:11:27.874Z,216
2017-01-27T07:12:41.350Z,240
2017-01-27T07:13:55.157Z,268
2017-01-27T07:15:08.882Z,292
2017-01-27T07:16:22.323Z,316
2017-01-27T07:17:35.798Z,340
2017-01-27T07:19:00.427Z,376
2017-01-27T07:20:13.852Z,404
2017-01-27T07:21:27.561Z,436
2017-01-27T07:22:41.037Z,464
2017-01-27T07:23:55.006Z,500
2017-01-27T07:25:08.526Z,528
2017-01-27T07:26:22.099Z,560
2017-01-27T07:27:35.901Z,596
2017-01-27T07:28:49.392Z,628
2017-01-27T07:30:02.901Z,664
2017-01-27T07:31:16.408Z,700
2017-01-27T07:32:31.092Z,732
2017-01-27T07:33:45.964Z,768
2017-01-27T07:34:59.538Z,796
2017-01-27T07:36:13.435Z,832
2017-01-27T07:37:27.416Z,864
2017-01-27T07:38:41.088Z,900
2017-01-27T07:39:54.940Z,932
2017-01-27T07:41:08.908Z,960
2017-01-27T07:42:22.517Z,988
2017-01-27T07:43:36.091Z,1012
2017-01-27T07:44:49.810Z,1036
2017-01-27T07:46:04.033Z,1068
2017-01-27T07:47:17.940Z,1092
2017-01-27T07:48:31.444Z,1120
2017-01-27T07:49:46.393Z,1140
2017-01-27T07:51:00.699Z,1164
2017-01-27T07:52:15.161Z,1176
2017-01-27T07:53:28.727Z,1180
2017-01-27T07:54:43.615Z,1164
2017-01-27T07:55:57.329Z,1168
2017-01-27T07:57:12.505Z,1188
2017-01-27T07:58:26.531Z,1216
2017-01-27T07:59:40.463Z,1268
2017-01-27T08:00:54.978Z,1296
2017-01-27T08:02:09.439Z,1292
2017-01-27T08:03:23.133Z,1284
2017-01-27T08:04:36.983Z,1292
2017-01-27T08:05:50.745Z,1300
2017-01-27T08:07:04.947Z,1320
2017-01-27T08:08:18.534Z,1352
2017-01-27T08:09:32.019Z,1388
2017-01-27T08:10:46.019Z,1412
2017-01-27T08:11:59.632Z,1420
2017-01-27T08:13:13.513Z,1444
2017-01-27T08:14:27.079Z,1460
2017-01-27T08:15:42.779Z,1476
2017-01-27T08:16:57.089Z,1492
2017-01-27T08:18:11.201Z,1504
2017-01-27T08:19:24.996Z,1500
2017-01-27T08:20:38.903Z,1504
2017-01-27T08:21:52.418Z,1516
2017-01-27T08:23:06.518Z,1532
2017-01-27T08:24:20.825Z,1548
2017-01-27T08:25:34.875Z,1572
2017-01-27T08:26:48.422Z,1616
2017-01-27T08:28:04.197Z,1660
2017-01-27T08:29:18.464Z,1692
2017-01-27T08:30:35.715Z,1736
2017-01-27T08:31:49.381Z,1772
2017-01-27T08:33:03.324Z,1788
2017-01-27T08:34:16.965Z,1828
2017-01-27T08:35:31.363Z,1864
2017-01-27T08:36:46.152Z,1868
2017-01-27T08:37:59.713Z,1916
2017-01-27T08:39:13.686Z,1912
2017-01-27T08:40:27.746Z,1928
2017-01-27T08:41:41.553Z,1940
2017-01-27T08:42:55.038Z,1936
2017-01-27T08:44:08.576Z,1956
2017-01-27T08:45:22.195Z,1968
2017-01-27T08:46:36.113Z,1960
2017-01-27T08:47:51.219Z,1984
2017-01-27T08:49:05.077Z,2020
2017-01-27T08:50:18.540Z,2044
2017-01-27T08:51:32.058Z,2076
2017-01-27T08:52:45.599Z,2112
2017-01-27T08:53:59.444Z,2156
2017-01-27T08:55:12.977Z,2188
2017-01-27T08:56:26.830Z,2220
2017-01-27T08:57:41.564Z,2236
2017-01-27T08:58:55.030Z,2252
2017-01-27T09:00:09.184Z,2264
2017-01-27T09:01:22.645Z,2268
2017-01-27T09:02:37.087Z,2264
2017-01-27T09:03:50.614Z,2236
2017-01-27T09:05:04.058Z,2244
2017-01-27T09:06:18.729Z,2248
2017-01-27T09:07:32.212Z,2260
2017-01-27T09:08:45.905Z,2252
2017-01-27T09:09:59.515Z,2240
2017-01-27T09:11:13.498Z,2224
2017-01-27T09:12:28.340Z,2228
2017-01-27T09:13:42.368Z,2220
2017-01-27T09:14:55.882Z,2232
2017-01-27T09:16:09.495Z,2244
2017-01-27T09:17:23.447Z,2244
2017-01-27T09:18:37.413Z,2256
2017-01-27T09:19:51.066Z,2272
2017-01-27T09:21:04.669Z,2300
2017-01-27T09:22:18.271Z,2308
2017-01-27T09:23:31.779Z,2320
2017-01-27T09:24:45.613Z,2328
2017-01-27T09:25:59.825Z,2368
2017-01-27T09:27:13.872Z,2400
2017-01-27T09:28:27.666Z,2412
2017-01-27T09:29:41.691Z,2392
2017-01-27T09:30:55.416Z,2412
2017-01-27T09:32:08.880Z,2472
2017-01-27T09:33:22.423Z,2468
2017-01-27T09:34:35.934Z,2460
2017-01-27T09:35:49.527Z,2480
2017-01-27T09:37:03.338Z,2472
2017-01-27T09:38:16.860Z,2484
2017-01-27T09:39:30.338Z,2480
2017-01-27T09:40:43.959Z,2448
2017-01-27T09:41:57.481Z,2436
2017-01-27T09:43:12.091Z,2460
2017-01-27T09:44:28.754Z,2500
2017-01-27T09:45:42.400Z,2504
2017-01-27T09:46:56.244Z,2508
2017-01-27T09:48:10.117Z,2512
2017-01-27T09:49:24.686Z,2528
2017-01-27T09:50:38.210Z,2560
2017-01-27T09:51:51.651Z,2588
2017-01-27T09:53:05.126Z,2632
2017-01-27T09:54:18.984Z,2704
2017-01-27T09:55:32.740Z,2728
2017-01-27T09:56:46.278Z,2712
2017-01-27T09:57:59.712Z,2752
2017-01-27T09:59:13.633Z,2820
2017-01-27T10:00:27.052Z,2808
2017-01-27T10:01:40.875Z,2800
2017-01-27T10:02:54.854Z,2780
2017-01-27T10:04:08.349Z,2772
2017-01-27T10:05:21.927Z,2800
2017-01-27T10:06:36.278Z,2808
2017-01-27T10:07:50.836Z,2800
2017-01-27T10:09:04.367Z,2800
2017-01-27T10:10:17.861Z,2788
2017-01-27T10:11:34.463Z,2788
2017-01-27T10:12:47.932Z,2780
2017-01-27T10:14:02.108Z,2784
2017-01-27T10:15:15.948Z,2820
2017-01-27T10:16:29.447Z,2840
2017-01-27T10:17:42.941Z,2856
2017-01-27T10:18:56.401Z,2860
2017-01-27T10:20:11.053Z,2852
2017-01-27T10:21:24.470Z,2872
2017-01-27T10:22:38.068Z,2880
2017-01-27T10:23:51.719Z,2892
2017-01-27T10:25:05.188Z,2888
2017-01-27T10:26:19.347Z,2896
2017-01-27T10:27:32.860Z,2904
2017-01-27T10:28:46.757Z,2940
2017-01-27T10:30:00.215Z,2988
2017-01-27T10:31:13.663Z,3044
2017-01-27T10:32:27.415Z,3068
2017-01-27T10:33:41.417Z,3092
2017-01-27T10:34:55.305Z,3108
2017-01-27T10:36:08.802Z,3128
2017-01-27T10:37:22.387Z,3156
2017-01-27T10:38:36.579Z,3168
2017-01-27T10:39:50.011Z,3180
2017-01-27T10:41:03.485Z,3188
2017-01-27T10:42:16.947Z,3160
2017-01-27T10:43:30.885Z,3148
2017-01-27T10:44:45.487Z,3164
2017-01-27T10:45:58.953Z,3172
2017-01-27T10:47:12.452Z,3176
2017-01-27T10:48:32.215Z,3208
2017-01-27T10:49:46.194Z,3224
2017-01-27T10:50:59.975Z,3220
2017-01-27T10:52:13.830Z,3232
2017-01-27T10:53:27.230Z,3264
2017-01-27T10:54:40.754Z,3276
2017-01-27T10:55:54.225Z,3260
2017-01-27T10:57:08.452Z,3260
2017-01-27T10:58:21.944Z,3280
2017-01-27T10:59:35.501Z,3296
2017-01-27T11:00:51.112Z,3308
2017-01-27T11:02:04.640Z,3292
2017-01-27T11:03:18.467Z,3292
2017-01-27T11:04:33.287Z,3280
2017-01-27T11:05:46.797Z,3280
2017-01-27T11:07:00.382Z,3276
2017-01-27T11:08:14.443Z,3268
2017-01-27T11:09:28.180Z,3276
2017-01-27T11:10:41.698Z,3272
2017-01-27T11:11:55.653Z,3240
2017-01-27T11:13:09.208Z,3200
2017-01-27T11:14:23.057Z,3160
2017-01-27T11:15:38.338Z,3152
2017-01-27T11:16:52.224Z,3124
2017-01-27T11:18:06.107Z,3092
2017-01-27T11:19:19.549Z,3092
2017-01-27T11:20:33.457Z,3104
2017-01-27T11:21:47.208Z,3104
2017-01-27T11:23:01.110Z,3104
2017-01-27T11:24:14.577Z,3116
2017-01-27T11:25:28.514Z,3152
2017-01-27T11:26:42.007Z,3196
2017-01-27T11:27:55.809Z,3240
2017-01-27T11:29:09.677Z,3296
2017-01-27T11:30:23.170Z,3328
2017-01-27T11:31:36.800Z,3340
2017-01-27T11:32:50.235Z,3368
2017-01-27T11:34:03.974Z,3388
2017-01-27T11:35:37.103Z,3420
2017-01-27T11:36:50.596Z,3444
2017-01-27T11:38:04.100Z,3480
2017-01-27T11:39:18.266Z,3476
2017-01-27T11:40:31.832Z,3488
2017-01-27T11:41:45.500Z,3492
2017-01-27T11:42:59.014Z,3480
2017-01-27T11:44:13.289Z,3460
2017-01-27T11:45:26.784Z,3444
2017-01-27T11:46:40.247Z,3424
2017-01-27T11:48:25.992Z,3396
2017-01-27T11:49:39.483Z,3336
2017-01-27T11:50:53.948Z,3336
2017-01-27T11:52:07.578Z,3280
2017-01-27T11:53:21.125Z,3228
2017-01-27T11:54:34.608Z,3176
2017-01-27T11:55:48.045Z,3136
2017-01-27T11:57:02.066Z,3128
2017-01-27T11:58:15.576Z,3088
2017-01-27T11:59:29.523Z,3072
2017-01-27T12:00:43.223Z,3048
2017-01-27T12:01:56.719Z,3020
2017-01-27T12:03:11.013Z,2980
2017-01-27T12:04:24.532Z,2900
2017-01-27T12:05:38.452Z,2840
2017-01-27T12:06:52.131Z,2804
2017-01-27T12:08:07.181Z,2796
2017-01-27T12:09:21.756Z,2728
2017-01-27T12:10:35.358Z,2716
2017-01-27T12:11:49.120Z,2684
2017-01-27T12:13:03.433Z,2628
2017-01-27T12:14:17.438Z,2584
2017-01-27T12:15:31.780Z,2540
2017-01-27T12:16:45.645Z,2504
2017-01-27T12:18:01.534Z,2472
2017-01-27T12:19:15.545Z,2440
2017-01-27T12:20:29.576Z,2408
2017-01-27T12:21:43.305Z,2380
2017-01-27T12:22:56.865Z,2364
2017-01-27T12:24:11.434Z,2352
2017-01-27T12:25:24.864Z,2336
2017-01-27T12:26:38.365Z,2304
2017-01-27T12:27:52.956Z,2316
2017-01-27T12:29:21.353Z,2300
2017-01-27T12:30:34.912Z,2264
2017-01-27T12:31:48.417Z,2216
2017-01-27T12:33:01.900Z,2168
2017-01-27T12:34:16.661Z,2148
2017-01-27T12:35:30.084Z,2112
2017-01-27T12:36:43.706Z,2076
2017-01-27T12:37:57.614Z,2068
2017-01-27T12:39:11.621Z,2044
2017-01-27T12:40:25.847Z,2028
2017-01-27T12:41:39.317Z,1976
2017-01-27T12:42:52.961Z,1984
2017-01-27T12:44:06.982Z,1976
2017-01-27T12:45:20.945Z,1992
2017-01-27T12:46:35.165Z,2040
2017-01-27T12:47:48.635Z,2060
2017-01-27T12:49:02.136Z,2100
2017-01-27T12:50:15.711Z,2088
2017-01-27T12:51:29.229Z,2092
2017-01-27T12:52:43.116Z,2112
2017-01-27T12:53:56.596Z,2112
2017-01-27T12:55:10.855Z,2108
2017-01-27T12:56:24.468Z,2112
2017-01-27T12:57:38.355Z,2104
2017-01-27T12:58:52.064Z,2084
2017-01-27T13:00:05.985Z,2060
2017-01-27T13:01:19.582Z,2036
2017-01-27T13:02:33.214Z,2028
2017-01-27T13:03:46.774Z,2036
2017-01-27T13:05:00.988Z,2056
2017-01-27T13:06:15.071Z,2072
2017-01-27T13:07:29.028Z,2072
2017-01-27T13:08:42.670Z,2080
2017-01-27T13:09:56.279Z,2040
2017-01-27T13:11:10.175Z,2040
2017-01-27T13:12:23.938Z,2032
2017-01-27T13:13:37.431Z,2064
2017-01-27T13:14:53.247Z,2068
2017-01-27T13:16:06.746Z,2100
2017-01-27T13:17:21.463Z,2112
2017-01-27T13:18:34.984Z,2116
2017-01-27T13:19:48.443Z,2136
2017-01-27T13:21:01.893Z,2132
2017-01-27T13:22:30.286Z,2096
2017-01-27T13:23:44.914Z,2044
2017-01-27T13:24:58.694Z,1992
2017-01-27T13:26:12.245Z,1976
2017-01-27T13:27:27.132Z,1952
2017-01-27T13:28:40.995Z,1904
2017-01-27T13:29:54.585Z,1864
2017-01-27T13:31:08.269Z,1836
2017-01-27T13:32:22.397Z,1824
2017-01-27T13:33:36.869Z,1804
2017-01-27T13:34:53.368Z,1784
2017-01-27T13:36:07.324Z,1760
2017-01-27T13:37:21.265Z,1740
2017-01-27T13:38:36.530Z,1704
2017-01-27T13:39:50.650Z,1648
2017-01-27T13:41:05.008Z,1592
2017-01-27T13:42:18.550Z,1556
2017-01-27T13:43:33.016Z,1516
2017-01-27T13:44:46.524Z,1492
2017-01-27T13:46:00.088Z,1448
2017-01-27T13:47:13.892Z,1412
2017-01-27T13:48:27.440Z,1368
2017-01-27T13:49:41.406Z,1316
2017-01-27T13:50:55.782Z,1284
2017-01-27T13:52:09.253Z,1264
2017-01-27T13:53:23.116Z,1240
2017-01-27T13:54:37.094Z,1232
2017-01-27T13:55:50.621Z,1224
2017-01-27T13:57:04.522Z,1220
2017-01-27T13:58:18.044Z,1204
2017-01-27T13:59:32.382Z,1184
2017-01-27T14:00:45.953Z,1160
2017-01-27T14:01:59.461Z,1140
2017-01-27T14:03:13.715Z,1124
2017-01-27T14:04:27.758Z,1104
2017-01-27T14:05:42.777Z,1088
2017-01-27T14:06:56.651Z,1084
2017-01-27T14:08:10.246Z,1076
2017-01-27T14:09:23.842Z,1072
2017-01-27T14:10:37.964Z,1076
2017-01-27T14:11:51.993Z,1088
2017-01-27T14:13:05.878Z,1072
2017-01-27T14:14:19.400Z,1068
2017-01-27T14:15:34.277Z,1068
2017-01-27T14:16:48.090Z,1072
2017-01-27T14:18:02.692Z,1080
2017-01-27T14:19:16.414Z,1084
2017-01-27T14:20:30.020Z,1088
2017-01-27T14:21:43.618Z,1116
2017-01-27T14:22:57.267Z,1168
2017-01-27T14:24:12.318Z,1212
2017-01-27T14:25:27.003Z,1196
2017-01-27T14:26:41.277Z,1216
2017-01-27T14:27:55.431Z,1228
2017-01-27T14:29:09.491Z,1264
2017-01-27T14:30:23.515Z,1252
2017-01-27T14:31:37.313Z,1256
2017-01-27T14:32:50.999Z,1276
2017-01-27T14:34:05.060Z,1276
2017-01-27T14:35:18.652Z,1288
2017-01-27T14:36:34.013Z,1280
2017-01-27T14:37:48.285Z,1284
2017-01-27T14:39:02.284Z,1308
2017-01-27T14:40:16.224Z,1336
2017-01-27T14:41:29.890Z,1344
2017-01-27T14:42:44.150Z,1324
2017-01-27T14:43:57.742Z,1300
2017-01-27T14:45:11.654Z,1300
2017-01-27T14:46:25.239Z,1304
2017-01-27T14:47:39.050Z,1296
2017-01-27T14:48:52.937Z,1264
2017-01-27T14:50:06.738Z,1256
2017-01-27T14:51:23.013Z,1252
2017-01-27T14:52:36.693Z,1228
2017-01-27T14:53:50.418Z,1196
2017-01-27T14:55:04.384Z,1160
2017-01-27T14:56:18.203Z,1144
2017-01-27T14:57:33.117Z,1132
2017-01-27T14:58:47.815Z,1116
2017-01-27T15:00:02.695Z,1104
2017-01-27T15:01:16.692Z,1100
2017-01-27T15:02:30.849Z,1100
2017-01-27T15:03:44.943Z,1088
2017-01-27T15:04:59.263Z,1068
2017-01-27T15:06:12.719Z,1040
2017-01-27T15:07:27.949Z,1020
2017-01-27T15:08:41.571Z,1000
2017-01-27T15:09:55.966Z,980
2017-01-27T15:11:10.782Z,960
2017-01-27T15:12:24.279Z,944
2017-01-27T15:13:38.758Z,924
2017-01-27T15:14:52.674Z,908
2017-01-27T15:16:06.374Z,888
2017-01-27T15:17:20.475Z,872
2017-01-27T15:18:34.204Z,852
2017-01-27T15:19:48.026Z,836
2017-01-27T15:21:01.522Z,812
2017-01-27T15:22:15.406Z,792
2017-01-27T15:23:29.444Z,772
2017-01-27T15:24:43.823Z,752
2017-01-27T15:25:57.558Z,728
2017-01-27T15:27:11.058Z,708
2017-01-27T15:28:25.390Z,688
2017-01-27T15:29:40.187Z,668
2017-01-27T15:30:53.674Z,648
2017-01-27T15:32:07.452Z,628
2017-01-27T15:33:21.504Z,608
2017-01-27T15:34:35.694Z,592
2017-01-27T15:35:55.031Z,568
2017-01-27T15:37:16.469Z,548
2017-01-27T15:38:30.930Z,528
2017-01-27T15:39:44.903Z,508
2017-01-27T15:40:58.977Z,488
2017-01-27T15:42:12.956Z,468
2017-01-27T15:43:27.268Z,444
2017-01-27T15:44:41.525Z,420
2017-01-27T15:45:55.464Z,400
2017-01-27T15:47:08.964Z,376
2017-01-27T15:48:26.209Z,356
2017-01-27T15:49:40.040Z,332
2017-01-27T15:50:53.874Z,312
2017-01-27T15:52:07.941Z,292
2017-01-27T15:53:22.064Z,272
2017-01-27T15:54:36.087Z,252
2017-01-27T15:55:49.956Z,236
2017-01-27T15:57:04.363Z,216
2017-01-27T15:58:18.302Z,200
2017-01-27T15:59:32.883Z,184
2017-01-27T16:00:47.353Z,168
2017-01-27T16:02:02.117Z,152
2017-01-27T16:03:16.883Z,136
2017-01-27T16:04:33.240Z,124
2017-01-27T16:05:49.697Z,116
2017-01-27T16:07:03.921Z,104
2017-01-27T16:08:26.357Z,92
2017-01-27T16:09:43.806Z,84
2017-01-27T16:11:00.076Z,76
2017-01-27T16:12:14.086Z,68
2017-01-27T16:13:29.033Z,60
2017-01-27T16:14:42.768Z,56
2017-01-27T16:15:56.677Z,44
2017-01-27T16:17:10.787Z,40
2017-01-27T16:18:24.461Z,36
2017-01-27T16:19:38.103Z,32
2017-01-27T16:20:53.099Z,24
2017-01-27T16:22:06.891Z,24
2017-01-27T16:23:20.911Z,20
2017-01-27T16:24:34.398Z,16
2017-01-27T16:25:47.935Z,12
2017-01-27T16:27:02.160Z,12
2017-01-27T16:28:17.316Z,8
2017-01-27T16:29:31.026Z,4
2017-01-27T16:30:44.767Z,8
2017-01-27T16:31:58.629Z,4
2017-01-27T16:33:12.384Z,4
2017-01-27T16:34:26.358Z,4
2017-01-27T16:35:39.945Z,4
2017-01-27T16:36:53.477Z,0
2017-01-27T16:38:07.002Z,0
2017-01-27T16:39:20.513Z,0
2017-01-27T16:40:34.559Z,0
2017-01-27T16:41:48.891Z,0
2017-01-27T16:43:02.447Z,0
2017-01-27T16:44:15.895Z,0
2017-01-27T16:45:29.819Z,0
2017-01-27T16:46:45.093Z,0
2017-01-27T16:47:59.133Z,0
2017-01-27T16:49:12.742Z,0
2017-01-27T16:50:26.273Z,0
2017-01-27T16:51:40.166Z,0
2017-01-27T16:52:54.567Z,0
2017-01-27T16:54:08.639Z,0
2017-01-27T16:55:23.964Z,0
2017-01-27T16:56:37.582Z,0
2017-01-27T16:57:51.918Z,0
2017-01-27T16:59:05.987Z,0
2017-01-27T17:00:19.847Z,0
2017-01-27T17:01:33.332Z,0
2017-01-27T17:02:47.222Z,0
2017-01-27T17:04:01.557Z,0
2017-01-27T17:05:15.450Z,0
2017-01-27T17:06:30.111Z,0
2017-01-27T17:07:43.677Z,0
2017-01-27T17:08:57.236Z,0
2017-01-27T17:10:11.239Z,0
2017-01-27T17:11:25.007Z,0
2017-01-27T17:12:38.920Z,0
2017-01-27T17:13:52.482Z,0
2017-01-27T17:15:06.029Z,0
2017-01-27T17:16:21.221Z,0
2017-01-27T17:17:35.061Z,0
2017-01-27T17:18:48.945Z,0